Nearby METAR Reports

This page may be slow to load as it queries the National Weather Service for data.

KBIS - Bismarck, North Dakota, USA
Distance from station: S 10mi, 15km
Updated: Wed, 20-Oct-2021 8:52pm CDT
Clear
Clear
 Wind from N
Wind: N 7 mph , 11 km/h
Temperature: 36°F , 2°C
Wind Chill: 30°F , -1°C
Dew Point: 28°F , -2°C
Humidity: 75%
Barometer: 30.21 inHg , 1023 hPa
Clouds: Clear
Visibility: 10 miles , 16 km
2021/10/21 01:52 KBIS 210152Z 35006KT 10SM CLR 02/M02 A3021 RMK AO2 SLP250 T00171022 $
KDIK - Dickinson, North Dakota, USA
Distance from station: W 95mi, 154km
Updated: Wed, 20-Oct-2021 8:56pm CDT
Clear
Clear
 Wind from ENE
Wind: ENE 6 mph , 9 km/h
Temperature: 30°F , -1°C
Wind Chill: 24°F , -4°C
Dew Point: 21°F , -6°C
Humidity: 69%
Barometer: 30.17 inHg , 1021.7 hPa
Clouds: Clear
Visibility: 10 miles , 16 km
2021/10/21 01:56 KDIK 210156Z AUTO 06005KT 10SM CLR M01/M06 A3017 RMK AO2 SLP245 T10111056
 
KXWA - Williston, North Dakota, USA
Distance from station: NNW 2mi, 2km
Updated: Wed, 20-Oct-2021 8:51pm CDT
Clear
Clear
 Wind from ESE
Wind: ESE 7 mph , 11 km/h
Temperature: 32°F , 0°C
Wind Chill: 25°F , -4°C
Dew Point: 23°F , -5°C
Humidity: 69%
Barometer: 30.19 inHg , 1022.4 hPa
Clouds: Clear
Visibility: 10 miles , 16 km
2021/10/21 01:51 KXWA 210151Z AUTO 12006KT 10SM CLR 00/M05 A3019 RMK AO2 SLP261 T00001050
KFAR - Fargo, North Dakota, USA
Distance from station: NNW 4mi, 7km
Updated: Wed, 20-Oct-2021 8:53pm CDT
Overcast
Overcast
 Wind from N
Wind: N 16 mph , 26 km/h, Gust: 25 mph , 41 km/h
Temperature: 43°F , 6°C
Wind Chill: 35°F , 2°C
Dew Point: 28°F , -2°C
Humidity: 57%
Barometer: 30.08 inHg , 1018.6 hPa
Clouds: Overcast
Visibility: 10 miles , 16 km
Cloud details: Overcast 3800 ft
2021/10/21 01:53 KFAR 210153Z 01014G22KT 10SM OVC038 06/M02 A3008 RMK AO2 PK WND 01028/0109 SLP195 T00561017
 
KGFK - Grand Forks, North Dakota, USA
Distance from station: NNW 76mi, 123km
Updated: Wed, 20-Oct-2021 8:53pm CDT
Few Clouds
Few Clouds
 Wind from N
Wind: N 14 mph , 22 km/h
Temperature: 36°F , 2°C
Wind Chill: 27°F , -3°C
Dew Point: 27°F , -3°C
Humidity: 70%
Barometer: 30.14 inHg , 1020.7 hPa
Clouds: Few Clouds
Visibility: 10 miles , 16 km
Cloud details: Few Clouds 14000 ft
2021/10/21 01:53 KGFK 210153Z 35012KT 10SM FEW140 02/M03 A3014 RMK AO2 SLP220 T00171028
KMOT - Minot, North Dakota, USA
Distance from station: E 109mi, 175km
Updated: Wed, 20-Oct-2021 8:54pm CDT
Clear
Clear
 Wind from NNW
Wind: NNW 7 mph , 11 km/h
Temperature: 34°F , 1°C
Wind Chill: 28°F , -2°C
Dew Point: 25°F , -4°C
Humidity: 70%
Barometer: 30.22 inHg , 1023.4 hPa
Clouds: Clear
Visibility: 10 miles , 16 km
2021/10/21 01:54 KMOT 210154Z 34006KT 10SM CLR 01/M04 A3022 RMK AO2 SLP255 T00061039